M I D A S
Marine Information and Data Acquisition System
Tripno 1137 of the Zeeleeuw from 2006-07-18 07:02:39 to 2006-07-18 11:51:59
Back to CruiseResearch ActivitiesStationsMapUnderway DataData graphs

EquipmentUnitsComments
TimeDGPSUTC
LatitudeDGPSDM.mWGS84
LongitudeDGPSDM.mWGS84
SpeedMeteo Stationm/sRelative wind speed
DirectionMeteo StationdegRelative wind direction
TemperatureMeteo Stationdeg CelciusAir temperature
PressureMeteo StationPaAtmospheric pressure
HumidityMeteo Station%Relative humidity
Missing or incorrect values are displayed as -999
Metereological data collected by the RV Zeeleeuw from 2006-07-18 07:03:06 to 2006-07-18 12:03:19
Time Latitude Longitude Speed Direction Temperature Pressure Humidity
2006-07-18 07:04 51°13.611 2°56.03 0.4 279 23.3 102110 64
2006-07-18 07:05 51°13.644 2°55.914 0.9 84 23.4 102120 64
2006-07-18 07:06 51°13.683 2°55.793 1.6 -999 23.5 102110 65
2006-07-18 07:07 51°13.701 2°55.716 1.9 284 23.6 102110 63
2006-07-18 07:08 51°13.708 2°55.709 2.5 286 23.6 102110 62
2006-07-18 07:09 51°13.748 2°55.707 2.4 357 23.6 102110 61
2006-07-18 07:10 51°13.832 2°55.637 3 279 23.4 102110 62
2006-07-18 07:11 51°13.938 2°55.555 4.4 355 23.3 102110 63
2006-07-18 07:12 51°14.046 2°55.476 2.9 355 23.1 102120 61
2006-07-18 07:13 51°14.142 2°55.405 4.6 277 23.1 102110 62
2006-07-18 07:14 51°14.237 2°55.295 4.7 278 23.1 102110 63
2006-07-18 07:15 51°14.34 2°55.111 5.1 282 23 102110 69
2006-07-18 07:16 51°14.442 2°54.905 5.4 280 22.7 102110 71
2006-07-18 07:17 51°14.53 2°54.685 5.2 351 22.3 102110 74
2006-07-18 07:18 51°14.618 2°54.415 6.5 280 22 102110 77
2006-07-18 07:19 51°14.724 2°54.15 6.4 277 21.7 102110 79
2006-07-18 07:20 51°14.829 2°53.879 6 278 21.5 102110 80
2006-07-18 07:21 51°14.91 2°53.59 6 278 21.4 102110 82
2006-07-18 07:22 51°15.009 2°53.317 6.1 276 21.3 102110 82
2006-07-18 07:23 51°15.102 2°53.026 5.9 280 21.2 102110 82
2006-07-18 07:24 51°15.192 2°52.738 6.1 279 21.2 102120 82
2006-07-18 07:25 51°15.283 2°52.452 5.7 352 21.2 102120 83
2006-07-18 07:26 51°15.371 2°52.167 5.4 277 21.2 102120 83
2006-07-18 07:27 51°15.452 2°51.88 5.6 -999 21.3 102120 84
2006-07-18 07:28 51°15.522 2°51.58 4.9 280 21.4 102120 86
2006-07-18 07:29 51°15.603 2°51.289 5.1 349 21.3 102120 88
2006-07-18 07:30 51°15.686 2°51 5.5 280 21.3 102120 90
2006-07-18 07:31 51°15.771 2°50.702 5.3 277 21.2 102120 91
2006-07-18 07:32 51°15.855 2°50.41 5.3 348 21.1 102120 92
2006-07-18 07:33 51°15.936 2°50.119 5 277 21.1 102120 92
2006-07-18 07:34 51°16.011 2°49.827 5.4 283 21 102120 93
2006-07-18 07:35 51°16.093 2°49.526 5.4 279 20.9 102120 93
2006-07-18 07:36 51°16.172 2°49.235 5.1 276 20.8 102120 94
2006-07-18 07:37 51°16.241 2°48.938 5.2 276 20.8 102120 94
2006-07-18 07:38 51°16.317 2°48.644 5.5 352 20.7 102120 94
2006-07-18 07:39 51°16.404 2°48.353 5.4 353 20.7 102120 95
2006-07-18 07:40 51°16.49 2°48.068 5.6 278 20.7 102120 95
2006-07-18 07:41 51°16.576 2°47.782 5.7 352 20.7 102120 95
2006-07-18 07:42 51°16.666 2°47.494 4.9 278 20.6 102120 95
2006-07-18 07:43 51°16.736 2°47.19 5.3 346 20.6 102130 95
2006-07-18 07:44 51°16.804 2°46.886 5 -999 20.6 102120 95
2006-07-18 07:45 51°16.875 2°46.583 5 283 20.6 102130 95
2006-07-18 07:46 51°16.948 2°46.28 5.2 281 20.6 102120 95
2006-07-18 07:47 51°17.022 2°45.972 5 348 20.6 102130 95
2006-07-18 07:48 51°17.097 2°45.665 5.4 352 20.5 102130 95
2006-07-18 07:49 51°17.171 2°45.363 5.5 280 20.5 102130 95
2006-07-18 07:50 51°17.25 2°45.054 5.3 277 20.5 102120 95
2006-07-18 07:51 51°17.326 2°44.749 4.9 -999 20.5 102120 95
2006-07-18 07:52 51°17.407 2°44.446 5.9 350 20.5 102120 95
2006-07-18 07:53 51°17.491 2°44.144 5.5 354 20.5 102120 95
2006-07-18 07:54 51°17.575 2°43.843 5.7 351 20.4 102120 95
2006-07-18 07:55 51°17.663 2°43.551 6.1 278 20.5 102130 95
2006-07-18 07:56 51°17.754 2°43.257 5.9 -999 20.4 102120 96
2006-07-18 07:57 51°17.851 2°42.965 6.1 354 20.4 102120 96
2006-07-18 07:58 51°17.939 2°42.662 5.3 -999 20.4 102120 96
2006-07-18 07:59 51°18.032 2°42.373 5.6 352 20.3 102120 96
2006-07-18 08:00 51°18.135 2°42.084 5.7 -999 20.3 102120 96
2006-07-18 08:01 51°18.24 2°41.793 5.6 353 20.3 102120 96
2006-07-18 08:02 51°18.341 2°41.507 5.5 -999 20.3 102120 96
2006-07-18 08:03 51°18.44 2°41.224 5.3 353 20.4 102120 96
2006-07-18 08:04 51°18.538 2°40.939 5.8 -999 20.3 102120 96
2006-07-18 08:05 51°18.647 2°40.662 5.4 354 20.3 102130 96
2006-07-18 08:06 51°18.756 2°40.389 6.1 -999 20.3 102120 96
2006-07-18 08:07 51°18.87 2°40.105 5.5 354 20.3 102120 96
2006-07-18 08:08 51°18.979 2°39.824 5.2 -999 20.3 102120 95
2006-07-18 08:09 51°19.085 2°39.534 5.7 353 20.3 102120 95
2006-07-18 08:10 51°19.191 2°39.248 5.6 -999 20.3 102120 95
2006-07-18 08:11 51°19.3 2°38.955 4.7 352 20.3 102120 95
2006-07-18 08:12 51°19.402 2°38.66 5.1 -999 20.3 102120 95
2006-07-18 08:13 51°19.517 2°38.371 5.3 278 20.3 102120 95
2006-07-18 08:14 51°19.629 2°38.078 5.1 -999 20.3 102130 95
2006-07-18 08:15 51°19.742 2°37.796 5.7 350 20.3 102130 95
2006-07-18 08:16 51°19.857 2°37.524 5.7 -999 20.3 102130 95
2006-07-18 08:17 51°19.953 2°37.306 3.9 2 20.3 102130 95
2006-07-18 08:18 51°20.002 2°37.192 2.4 -999 20.3 102130 95
2006-07-18 08:19 51°20.016 2°37.197 1.8 84 20.3 102140 95
2006-07-18 08:20 51°20.03 2°37.212 2.6 77 20.7 102140 96
2006-07-18 08:21 51°20.043 2°37.225 2 76 21 102140 95
2006-07-18 08:22 51°20.052 2°37.231 2.6 -999 21.4 102140 94
2006-07-18 08:23 51°20.052 2°37.227 2.9 81 21.3 102140 92
2006-07-18 08:24 51°20.048 2°37.225 2.8 -999 21.2 102140 91
2006-07-18 08:25 51°20.045 2°37.225 2.9 81 21.2 102140 91
2006-07-18 08:26 51°20.044 2°37.225 2.9 283 21.1 102140 91
2006-07-18 08:27 51°20.043 2°37.226 3 83 21.1 102140 91
2006-07-18 08:28 51°20.044 2°37.226 3 -999 21.1 102140 90
2006-07-18 08:29 51°20.045 2°37.227 3.4 83 21.1 102140 90
2006-07-18 08:30 51°20.046 2°37.227 3 -999 21.1 102150 90
2006-07-18 08:31 51°20.047 2°37.228 2.7 83 21.1 102150 90
2006-07-18 08:32 51°20.047 2°37.228 2.8 81 21 102150 90
2006-07-18 08:33 51°20.046 2°37.228 2.7 83 21.1 102150 90
2006-07-18 08:34 51°20.044 2°37.228 3.4 -999 21.1 102150 90
2006-07-18 08:35 51°20.043 2°37.228 2.6 78 21 102150 90
2006-07-18 08:36 51°20.041 2°37.228 2.7 -999 20.8 102150 90
2006-07-18 08:37 51°20.04 2°37.228 2.5 82 20.8 102150 91
2006-07-18 08:38 51°20.04 2°37.228 2.3 76 20.7 102150 92
2006-07-18 08:39 51°20.04 2°37.227 2.6 81 20.7 102160 92
2006-07-18 08:40 51°20.04 2°37.226 2.9 82 20.7 102150 92
2006-07-18 08:41 51°20.041 2°37.225 2.4 77 20.7 102150 92
2006-07-18 08:42 51°20.042 2°37.225 3 -999 20.7 102150 92
2006-07-18 08:43 51°20.042 2°37.225 2.4 285 20.8 102150 93
2006-07-18 08:44 51°20.043 2°37.226 2.8 280 20.9 102150 93
2006-07-18 08:45 51°20.045 2°37.225 2.9 -999 20.9 102150 92
2006-07-18 08:46 51°20.046 2°37.225 3.1 284 21 102150 92
2006-07-18 08:47 51°20.047 2°37.225 1.9 -999 21 102150 92
2006-07-18 08:48 51°20.047 2°37.225 2.2 284 21.1 102150 92
2006-07-18 08:49 51°20.047 2°37.225 2 281 21.1 102150 91
2006-07-18 08:50 51°20.046 2°37.225 2.7 271 21.2 102160 91
2006-07-18 08:51 51°20.046 2°37.225 2.1 -999 21.2 102160 91
2006-07-18 08:52 51°20.045 2°37.225 2.7 77 21.1 102160 90
2006-07-18 08:53 51°20.044 2°37.224 2.5 -999 21.1 102160 90
2006-07-18 08:54 51°20.043 2°37.224 2.2 77 21 102160 90
2006-07-18 08:55 51°20.042 2°37.223 2.3 76 20.9 102160 90
2006-07-18 08:56 51°20.042 2°37.222 2.6 83 20.9 102160 91
2006-07-18 08:57 51°20.041 2°37.221 2.8 -999 20.8 102160 91
2006-07-18 08:58 51°20.042 2°37.221 3 270 20.8 102160 92
2006-07-18 08:59 51°20.043 2°37.219 3.2 284 20.9 102150 92
2006-07-18 09:00 51°20.044 2°37.218 2.5 279 20.9 102150 92
2006-07-18 09:01 51°20.046 2°37.216 2.3 278 20.9 102150 92
2006-07-18 09:02 51°20.047 2°37.213 2.3 280 21 102140 91
2006-07-18 09:03 51°20.048 2°37.211 2.2 263 21 102140 91
2006-07-18 09:04 51°20.049 2°37.209 2.3 262 21.1 102140 91
2006-07-18 09:05 51°20.049 2°37.208 2.7 -999 21.1 102140 91
2006-07-18 09:06 51°20.048 2°37.207 3 -999 21.1 102140 91
2006-07-18 09:07 51°20.048 2°37.207 3.6 278 21.2 102140 90
2006-07-18 09:08 51°20.047 2°37.208 3.6 -999 21.1 102140 90
2006-07-18 09:09 51°20.046 2°37.21 3.9 83 21.1 102140 90
2006-07-18 09:10 51°20.046 2°37.212 3.5 276 21 102140 90
2006-07-18 09:11 51°20.045 2°37.213 2.9 280 21 102140 90
2006-07-18 09:12 51°20.045 2°37.212 3.7 -999 20.9 102130 91
2006-07-18 09:13 51°20.044 2°37.209 4.6 278 20.9 102130 91
2006-07-18 09:14 51°20.045 2°37.205 4.3 -999 21 102130 91
2006-07-18 09:15 51°20.045 2°37.201 4.2 277 21 102130 91
2006-07-18 09:16 51°20.044 2°37.198 4.1 280 21.1 102130 91
2006-07-18 09:17 51°20.043 2°37.195 3.4 281 21.2 102130 91
2006-07-18 09:18 51°20.042 2°37.193 3 279 21.2 102130 90
2006-07-18 09:19 51°20.041 2°37.192 3.9 277 21.2 102130 90
2006-07-18 09:20 51°20.04 2°37.192 4.7 279 21.2 102140 90
2006-07-18 09:21 51°20.039 2°37.192 4.6 278 21.3 102140 90
2006-07-18 09:22 51°20.038 2°37.193 4.9 278 21.4 102130 90
2006-07-18 09:23 51°20.037 2°37.193 4.5 280 21.4 102130 89
2006-07-18 09:24 51°20.037 2°37.194 4.6 277 21.4 102130 89
2006-07-18 09:25 51°20.036 2°37.193 4.3 -999 21.5 102130 89
2006-07-18 09:26 51°20.034 2°37.191 4.6 -999 21.5 102130 89
2006-07-18 09:27 51°20.033 2°37.19 4.2 284 21.5 102130 88
2006-07-18 09:28 51°20.032 2°37.188 4.7 -999 21.5 102130 88
2006-07-18 09:29 51°20.031 2°37.187 4.4 282 21.6 102140 88
2006-07-18 09:30 51°20.029 2°37.186 4.3 -999 21.6 102140 87
2006-07-18 09:31 51°20.028 2°37.185 4.1 279 21.6 102130 87
2006-07-18 09:32 51°20.026 2°37.184 3.9 -999 21.7 102140 87
2006-07-18 09:33 51°20.026 2°37.184 4.2 278 21.6 102140 87
2006-07-18 09:34 51°20.025 2°37.184 3.8 -999 21.6 102140 87
2006-07-18 09:35 51°20.025 2°37.184 4.2 284 21.5 102140 86
2006-07-18 09:36 51°20.025 2°37.184 4.1 -999 21.4 102140 86
2006-07-18 09:37 51°20.026 2°37.183 4 276 21.4 102140 87
2006-07-18 09:38 51°20.026 2°37.182 3.7 -999 21.3 102140 87
2006-07-18 09:39 51°20.027 2°37.182 3.9 283 21.3 102140 87
2006-07-18 09:40 51°20.027 2°37.182 4.1 -999 21.3 102140 87
2006-07-18 09:41 51°20.028 2°37.182 4 282 21.3 102140 88
2006-07-18 09:42 51°20.027 2°37.182 3.8 -999 21.2 102140 88
2006-07-18 09:43 51°20.028 2°37.182 3.6 277 21.2 102140 88
2006-07-18 09:44 51°20.028 2°37.182 3.6 -999 21.3 102140 88
2006-07-18 09:45 51°20.028 2°37.181 3.8 284 21.2 102140 88
2006-07-18 09:46 51°20.028 2°37.18 3.9 -999 21.2 102140 88
2006-07-18 09:47 51°20.029 2°37.18 3.5 278 21.2 102140 89
2006-07-18 09:48 51°20.029 2°37.18 3.4 -999 21.2 102150 89
2006-07-18 09:49 51°20.03 2°37.18 3.3 282 21.2 102150 89
2006-07-18 09:50 51°20.031 2°37.179 3.5 -999 21.2 102140 89
2006-07-18 09:51 51°20.032 2°37.18 3.3 277 21.2 102140 89
2006-07-18 09:52 51°20.032 2°37.18 3.5 281 21.2 102140 89
2006-07-18 09:53 51°20.032 2°37.18 3.9 275 21.2 102140 89
2006-07-18 09:54 51°20.032 2°37.179 3.6 -999 21.2 102140 89
2006-07-18 09:55 51°20.032 2°37.177 3.5 279 21.2 102140 88
2006-07-18 09:56 51°20.032 2°37.177 3.9 -999 21.2 102140 89
2006-07-18 09:57 51°20.032 2°37.176 3.3 24 21.2 102140 89
2006-07-18 09:58 51°20.032 2°37.176 3.7 -999 21.2 102140 88
2006-07-18 09:59 51°20.032 2°37.177 3.9 22 21.3 102140 89
2006-07-18 10:00 51°20.032 2°37.178 4.3 32 21.3 102140 89
2006-07-18 10:01 51°20.032 2°37.178 3.3 278 21.3 102140 88
2006-07-18 10:02 51°20.032 2°37.177 3.6 283 21.3 102140 88
2006-07-18 10:03 51°20.033 2°37.177 3.4 -999 21.3 102140 88
2006-07-18 10:04 51°20.033 2°37.177 3.6 24 21.3 102140 88
2006-07-18 10:05 51°20.033 2°37.176 3.8 -999 21.3 102140 88
2006-07-18 10:06 51°20.032 2°37.176 3.5 -999 21.3 102140 88
2006-07-18 10:07 51°20.031 2°37.177 3.6 278 21.3 102140 88
2006-07-18 10:08 51°20.031 2°37.177 4.1 28 21.3 102140 88
2006-07-18 10:09 51°20.03 2°37.177 3.9 284 21.3 102130 88
2006-07-18 10:10 51°20.029 2°37.177 4 283 21.4 102130 88
2006-07-18 10:11 51°20.03 2°37.181 3.8 27 21.4 102130 88
2006-07-18 10:12 51°20.03 2°37.182 3.8 277 21.4 102130 87
2006-07-18 10:13 51°20.027 2°37.177 4.2 276 21.5 102130 87
2006-07-18 10:14 51°20.023 2°37.167 4 -999 21.5 102130 87
2006-07-18 10:15 51°20.017 2°37.157 4.8 245 21.5 102130 87
2006-07-18 10:16 51°20.013 2°37.146 4.5 283 21.6 102130 87
2006-07-18 10:17 51°20.008 2°37.136 4.4 276 21.6 102130 87
2006-07-18 10:18 51°19.992 2°37.204 5.1 278 21.6 102120 86
2006-07-18 10:19 51°19.925 2°37.344 5.1 280 21.6 102120 86
2006-07-18 10:20 51°19.783 2°37.463 4.4 282 21.5 102120 86
2006-07-18 10:21 51°19.591 2°37.562 4.4 -999 21.5 102120 86
2006-07-18 10:22 51°19.401 2°37.66 4.1 30 21.4 102120 86
2006-07-18 10:23 51°19.206 2°37.768 4.3 -999 21.4 102120 87
2006-07-18 10:24 51°19.012 2°37.87 4.5 23 21.4 102120 87
2006-07-18 10:25 51°18.818 2°37.974 4.9 24 21.3 102120 87
2006-07-18 10:26 51°18.626 2°38.087 4.5 278 21.3 102120 88
2006-07-18 10:27 51°18.431 2°38.193 4.4 30 21.2 102120 88
2006-07-18 10:28 51°18.237 2°38.304 4.2 278 21.2 102120 89
2006-07-18 10:29 51°18.045 2°38.401 3.6 280 21.2 102120 89
2006-07-18 10:30 51°17.858 2°38.505 3.9 276 21.2 102120 90
2006-07-18 10:31 51°17.668 2°38.591 4.1 278 21.2 102120 90
2006-07-18 10:32 51°17.47 2°38.682 2.6 283 21.2 102120 90
2006-07-18 10:33 51°17.275 2°38.774 4.4 285 21.2 102110 90
2006-07-18 10:34 51°17.082 2°38.865 4.5 284 21.3 102110 90
2006-07-18 10:35 51°16.9 2°38.95 3.5 278 21.3 102110 90
2006-07-18 10:36 51°16.708 2°39.028 4 27 21.3 102110 90
2006-07-18 10:37 51°16.512 2°39.119 4.2 279 21.3 102110 90
2006-07-18 10:38 51°16.321 2°39.236 4.3 278 21.4 102110 90
2006-07-18 10:39 51°16.123 2°39.339 4.4 -999 21.4 102110 90
2006-07-18 10:40 51°15.925 2°39.421 3.6 277 21.4 102110 90
2006-07-18 10:41 51°15.724 2°39.489 3.2 282 21.4 102110 90
2006-07-18 10:42 51°15.516 2°39.532 2.8 279 21.4 102110 90
2006-07-18 10:43 51°15.313 2°39.571 2.4 -999 21.5 102110 90
2006-07-18 10:44 51°15.101 2°39.555 2.1 283 21.5 102110 90
2006-07-18 10:45 51°14.891 2°39.536 2.1 -999 21.6 102110 90
2006-07-18 10:46 51°14.682 2°39.525 2.8 283 21.7 102100 90
2006-07-18 10:47 51°14.476 2°39.504 3 -999 21.7 102110 90
2006-07-18 10:48 51°14.264 2°39.484 2.9 281 21.8 102100 89
2006-07-18 10:49 51°14.066 2°39.463 4.1 283 21.9 102100 89
2006-07-18 10:50 51°13.861 2°39.52 4.8 283 21.9 102100 89
2006-07-18 10:51 51°13.676 2°39.635 5.2 -999 21.9 102090 88
2006-07-18 10:52 51°13.49 2°39.761 5.8 23 22 102090 88
2006-07-18 10:53 51°13.335 2°39.936 6.2 -999 22 102090 88
2006-07-18 10:54 51°13.169 2°40.111 6 -999 22 102090 88
2006-07-18 10:55 51°13.041 2°40.322 8.5 -999 22 102080 87
2006-07-18 10:56 51°13.029 2°40.605 9.9 279 22 102080 87
2006-07-18 10:57 51°13.079 2°40.883 9.9 -999 21.9 102070 88
2006-07-18 10:58 51°13.116 2°41.167 9.8 279 21.9 102080 88
2006-07-18 10:59 51°13.155 2°41.452 10.7 281 21.9 102080 88
2006-07-18 11:00 51°13.206 2°41.733 10.1 276 21.9 102070 88
2006-07-18 11:01 51°13.241 2°42.018 10.3 -999 21.9 102070 88
2006-07-18 11:02 51°13.289 2°42.301 10.8 279 21.9 102070 88
2006-07-18 11:03 51°13.323 2°42.584 10.3 -999 21.9 102070 88
2006-07-18 11:04 51°13.377 2°42.869 10.5 283 21.9 102070 88
2006-07-18 11:05 51°13.412 2°43.154 9.6 -999 21.9 102070 88
2006-07-18 11:06 51°13.462 2°43.435 10.5 278 21.9 102080 88
2006-07-18 11:07 51°13.517 2°43.71 10.7 -999 21.8 102080 88
2006-07-18 11:08 51°13.569 2°43.981 10.8 282 21.7 102080 89
2006-07-18 11:09 51°13.631 2°44.251 10 -999 21.7 102070 89
2006-07-18 11:10 51°13.698 2°44.52 10.5 285 21.7 102070 90
2006-07-18 11:11 51°13.778 2°44.773 11.2 282 21.7 102070 90
2006-07-18 11:12 51°13.843 2°45.037 10.9 280 21.8 102070 90
2006-07-18 11:13 51°13.922 2°45.291 11.8 276 21.8 102060 90
2006-07-18 11:14 51°14.002 2°45.546 12.3 285 21.8 102060 88
2006-07-18 11:15 51°14.066 2°45.814 11.4 -999 22 102060 87
2006-07-18 11:16 51°14.131 2°46.082 11 -999 22.1 102060 87
2006-07-18 11:17 51°14.188 2°46.354 11.8 280 22.1 102060 87
2006-07-18 11:18 51°14.237 2°46.63 11.1 279 22.1 102060 87
2006-07-18 11:19 51°14.287 2°46.904 10.3 -999 22 102060 88
2006-07-18 11:20 51°14.313 2°47.185 10.9 280 22 102060 88
2006-07-18 11:21 51°14.358 2°47.46 10.9 284 22 102060 88
2006-07-18 11:22 51°14.378 2°47.74 10.8 277 22 102060 88
2006-07-18 11:23 51°14.421 2°48.021 11.3 277 22 102060 89
2006-07-18 11:24 51°14.445 2°48.291 10.8 281 22 102050 89
2006-07-18 11:25 51°14.479 2°48.586 10.8 -999 22 102050 89
2006-07-18 11:26 51°14.502 2°48.871 11.2 282 22 102050 89
2006-07-18 11:27 51°14.526 2°49.155 11.1 -999 21.9 102050 90
2006-07-18 11:28 51°14.553 2°49.439 11.6 276 21.9 102050 90
2006-07-18 11:29 51°14.587 2°49.719 11.4 278 21.9 102040 90
2006-07-18 11:30 51°14.61 2°49.938 10.3 276 21.9 102050 90
2006-07-18 11:31 51°14.615 2°50.134 9.4 -999 21.9 102060 91
2006-07-18 11:32 51°14.605 2°50.34 9.4 279 21.9 102050 91
2006-07-18 11:33 51°14.599 2°50.55 9.1 284 22 102050 91
2006-07-18 11:34 51°14.591 2°50.764 9.4 277 22 102050 91
2006-07-18 11:35 51°14.583 2°50.984 9.2 278 22 102050 91
2006-07-18 11:36 51°14.575 2°51.205 8.7 279 22.1 102050 91
2006-07-18 11:37 51°14.567 2°51.426 9.7 -999 22.1 102050 91
2006-07-18 11:38 51°14.561 2°51.651 10.2 280 22.1 102050 91
2006-07-18 11:39 51°14.571 2°51.881 9.3 281 22.1 102050 90
2006-07-18 11:40 51°14.583 2°52.124 9.5 279 22.1 102050 91
2006-07-18 11:41 51°14.595 2°52.364 9.7 -999 22.1 102050 91
2006-07-18 11:42 51°14.607 2°52.606 9.9 -999 22.1 102040 90
2006-07-18 11:43 51°14.617 2°52.869 10.9 276 22.2 102050 90
2006-07-18 11:44 51°14.581 2°53.154 10.5 -999 22.2 102040 90
2006-07-18 11:45 51°14.546 2°53.445 10.2 279 22.2 102040 90
2006-07-18 11:46 51°14.511 2°53.74 10 275 22.2 102050 89
2006-07-18 11:47 51°14.483 2°54.031 10.4 283 22.2 102040 89
2006-07-18 11:48 51°14.448 2°54.321 9.5 -999 22.1 102040 88
2006-07-18 11:49 51°14.421 2°54.615 9.6 284 22.2 102040 88
2006-07-18 11:50 51°14.387 2°54.912 10.7 -999 22.2 102030 88
2006-07-18 11:51 51°14.316 2°55.178 7.1 278 22.2 102040 88
2006-07-18 11:52 51°14.214 2°55.333 3.5 284 22.3 102070 88
2006-07-18 11:53 51°14.113 2°55.424 3.3 278 22.5 102070 89
2006-07-18 11:54 51°14.02 2°55.494 2.5 -999 22.7 102060 89
2006-07-18 11:55 51°13.926 2°55.566 2.7 283 22.9 102060 88
2006-07-18 11:56 51°13.827 2°55.639 3.8 281 23.1 102060 86
2006-07-18 11:57 51°13.742 2°55.731 2.9 283 23.2 102060 84
2006-07-18 11:58 51°13.68 2°55.84 3.8 -999 23.4 102060 82
2006-07-18 11:59 51°13.636 2°55.947 2.3 278 23.7 102060 79
2006-07-18 12:00 51°13.608 2°56.049 3.5 283 24.1 102060 75
2006-07-18 12:01 51°13.602 2°56.097 5 278 24.5 102060 72
2006-07-18 12:02 51°13.601 2°56.1 5.1 276 24.9 102060 67
2006-07-18 12:03 51°13.602 2°56.1 4.6 277 25.3 102060 65